Time;durP1;ratioP1;P1;durP2;ratioP2;P2;SDS_P1;SDS_P2;PMS_P1;PMS_P2;Temp;Humidity;BMP_temperature;BMP_pressure;BME280_temperature;BME280_humidity;BME280_pressure;Samples;Min_cycle;Max_cycle;Signal;HPM_P1;HPM_P2
2022/03/25 00:03:45;;;;;;;3.60;2.88;;;;;;;19.07;41.08;97819.31;10555528;28;20044;-60
2022/03/25 00:09:05;;;;;;;4.60;2.83;;;;;;;19.06;41.09;97820.41;10570251;28;20054;-60
2022/03/25 00:14:24;;;;;;;3.92;2.90;;;;;;;19.06;41.00;97822.31;10572945;28;20124;-60
2022/03/25 00:19:44;;;;;;;2.90;2.60;;;;;;;19.05;41.03;97818.00;10545757;28;20064;-60
2022/03/25 00:25:05;;;;;;;3.38;2.85;;;;;;;19.03;41.01;97810.19;10544953;28;20054;-60
2022/03/25 00:30:25;;;;;;;2.75;2.53;;;;;;;19.03;40.92;97817.50;10539864;28;20534;-60
2022/03/25 00:35:44;;;;;;;3.42;2.83;;;;;;;19.01;41.02;97814.28;10541453;28;20055;-60
2022/03/25 00:41:07;;;;;;;3.38;2.90;;;;;;;19.01;40.84;97815.09;10555230;28;20056;-60
2022/03/25 00:46:27;;;;;;;3.20;2.90;;;;;;;19.00;40.94;97813.50;10537946;28;20604;-60
2022/03/25 00:51:47;;;;;;;3.08;2.78;;;;;;;18.99;40.81;97811.88;10561467;28;20043;-60
2022/03/25 00:57:06;;;;;;;3.08;2.70;;;;;;;18.99;40.67;97809.19;10562228;28;20040;-60
2022/03/25 01:02:26;;;;;;;3.05;2.70;;;;;;;18.97;40.74;97803.28;10553980;28;20529;-60
2022/03/25 01:07:46;;;;;;;3.03;2.70;;;;;;;18.95;40.62;97795.50;10556925;28;20051;-60
2022/03/25 01:13:06;;;;;;;3.83;3.00;;;;;;;18.95;40.69;97789.25;10549789;28;20044;-60
2022/03/25 01:18:25;;;;;;;3.20;2.63;;;;;;;18.94;40.72;97788.47;10543564;28;20058;-60
2022/03/25 01:23:45;;;;;;;3.47;2.97;;;;;;;18.94;40.53;97790.38;10511924;28;20056;-60
2022/03/25 01:29:06;;;;;;;3.00;2.70;;;;;;;18.92;40.60;97784.47;10552525;28;20044;-60
2022/03/25 01:34:26;;;;;;;2.92;2.47;;;;;;;18.92;40.57;97784.47;10579634;28;20052;-60
2022/03/25 01:39:45;;;;;;;3.10;2.80;;;;;;;18.91;40.55;97788.25;10567766;28;20044;-60
2022/03/25 01:45:05;;;;;;;2.70;2.40;;;;;;;18.89;40.47;97790.44;10523749;28;20056;-60
2022/03/25 01:50:25;;;;;;;2.85;2.65;;;;;;;18.89;40.53;97782.34;10562625;28;20051;-60
2022/03/25 01:55:58;;;;;;;3.08;2.80;;;;;;;18.88;40.38;97786.97;10506702;28;20097;-60
2022/03/25 02:01:20;;;;;;;5.00;2.70;;;;;;;18.87;40.48;97787.25;10520321;28;20048;-60
2022/03/25 02:06:40;;;;;;;3.00;2.70;;;;;;;18.86;40.29;97781.06;10533072;28;20134;-60
2022/03/25 02:12:00;;;;;;;3.33;2.50;;;;;;;18.85;40.26;97781.34;10514434;28;20047;-60
2022/03/25 02:17:20;;;;;;;2.55;2.35;;;;;;;18.84;40.34;97777.84;10484871;28;20056;-60
2022/03/25 02:22:41;;;;;;;4.05;2.80;;;;;;;18.83;40.35;97775.44;10507868;28;20044;-60
2022/03/25 02:28:04;;;;;;;3.67;2.90;;;;;;;18.83;40.17;97778.13;10521801;28;20043;-61
2022/03/25 02:33:25;;;;;;;3.88;2.80;;;;;;;18.80;40.20;97766.03;10535255;28;20051;-60
2022/03/25 02:38:45;;;;;;;3.42;2.65;;;;;;;18.81;40.21;97769.53;10565164;28;20044;-60
2022/03/25 02:44:05;;;;;;;2.78;2.58;;;;;;;18.79;40.06;97786.00;10548502;28;20511;-60
2022/03/25 02:49:24;;;;;;;3.20;2.90;;;;;;;18.78;40.24;97779.78;10556147;28;20121;-60
2022/03/25 02:54:44;;;;;;;3.03;2.78;;;;;;;18.76;40.23;97779.28;10535551;28;20051;-60
2022/03/25 03:00:08;;;;;;;3.85;2.95;;;;;;;18.75;40.00;97784.97;10547643;28;20043;-60
2022/03/25 03:05:28;;;;;;;5.25;2.65;;;;;;;18.75;40.10;97785.78;10576232;28;20457;-60
2022/03/25 03:10:48;;;;;;;3.10;2.80;;;;;;;18.74;40.04;97784.19;10544888;28;20434;-60
2022/03/25 03:16:08;;;;;;;3.10;2.75;;;;;;;18.73;40.04;97777.16;10571327;28;20039;-60
2022/03/25 03:21:29;;;;;;;2.97;2.58;;;;;;;18.72;39.95;97777.47;10556882;28;20557;-60
2022/03/25 03:26:49;;;;;;;3.00;2.70;;;;;;;18.71;39.97;97779.38;10542478;28;20055;-60
2022/03/25 03:32:09;;;;;;;3.35;3.03;;;;;;;18.70;40.07;97783.19;10553818;28;20052;-60
2022/03/25 03:37:28;;;;;;;3.10;2.80;;;;;;;18.70;39.94;97787.75;10573175;28;20042;-60
2022/03/25 03:42:51;;;;;;;3.75;2.80;;;;;;;18.68;40.02;97785.38;10541319;28;20056;-60
2022/03/25 03:48:11;;;;;;;3.10;2.80;;;;;;;18.68;39.80;97779.16;10545889;28;20056;-60
2022/03/25 03:53:30;;;;;;;2.80;2.55;;;;;;;18.67;39.93;97783.75;10541971;28;20048;-60
2022/03/25 03:58:50;;;;;;;2.95;2.70;;;;;;;18.67;39.92;97791.06;10558539;28;20052;-60
2022/03/25 04:04:09;;;;;;;3.30;2.97;;;;;;;18.66;39.88;97790.25;10526998;28;20059;-60
2022/03/25 04:09:29;;;;;;;3.97;2.72;;;;;;;18.64;39.76;97789.75;10560221;28;20052;-60
2022/03/25 04:14:48;;;;;;;3.30;3.00;;;;;;;18.64;39.83;97786.22;10540299;28;20048;-60
2022/03/25 04:20:10;;;;;;;3.00;2.70;;;;;;;18.62;39.93;97778.44;10546675;28;20078;-60
2022/03/25 04:25:29;;;;;;;2.90;2.60;;;;;;;18.63;39.85;97781.94;10538758;28;20063;-60
2022/03/25 04:30:49;;;;;;;3.88;3.00;;;;;;;18.61;39.86;97778.72;10542722;28;20048;-60
2022/03/25 04:36:09;;;;;;;2.53;2.33;;;;;;;18.60;39.74;97783.31;10538731;28;20655;-59
2022/03/25 04:41:28;;;;;;;6.97;5.75;;;;;;;18.58;38.41;97785.50;10538579;28;20056;-60
2022/03/25 04:46:48;;;;;;;3.50;3.20;;;;;;;18.58;38.80;97780.94;10538259;28;20052;-60
2022/03/25 04:52:07;;;;;;;4.40;4.00;;;;;;;18.55;39.46;97781.50;10551431;28;20043;-60
2022/03/25 04:57:27;;;;;;;4.30;3.70;;;;;;;18.55;39.19;97786.09;10536932;28;20056;-60
2022/03/25 05:02:46;;;;;;;4.68;4.22;;;;;;;18.54;39.10;97789.88;10538601;28;20479;-60
2022/03/25 05:08:06;;;;;;;4.22;3.83;;;;;;;18.54;39.06;97789.88;10541858;28;20113;-60
2022/03/25 05:13:25;;;;;;;9.32;4.65;;;;;;;18.54;39.02;97792.59;10549191;28;20040;-61
2022/03/25 05:18:45;;;;;;;6.20;4.57;;;;;;;18.55;39.50;97802.28;10556038;28;20467;-60
2022/03/25 05:24:04;;;;;;;6.20;4.47;;;;;;;18.55;39.42;97797.69;10552483;28;20036;-60
2022/03/25 05:29:24;;;;;;;5.03;4.10;;;;;;;18.57;39.47;97798.19;10552448;28;20056;-60
2022/03/25 05:34:43;;;;;;;4.55;4.15;;;;;;;18.57;39.70;97800.91;10555947;28;20067;-60
2022/03/25 05:40:04;;;;;;;4.47;4.07;;;;;;;18.61;39.63;97809.22;10534883;28;20460;-60
2022/03/25 05:45:24;;;;;;;4.47;3.90;;;;;;;18.62;39.82;97810.84;10543753;28;20081;-60
2022/03/25 05:50:43;;;;;;;4.25;3.85;;;;;;;18.65;39.92;97817.53;10539543;28;20052;-60
2022/03/25 05:56:04;;;;;;;9.25;4.28;;;;;;;18.69;40.26;97822.03;10548492;28;20514;-58
2022/03/25 06:01:24;;;;;;;6.38;3.92;;;;;;;18.72;40.17;97826.88;10538557;28;20044;-58
2022/03/25 06:06:43;;;;;;;5.32;3.92;;;;;;;18.76;40.13;97830.59;10535384;28;20048;-59
2022/03/25 06:12:03;;;;;;;19.02;14.60;;;;;;;18.77;37.57;97829.47;10540687;28;20036;-60
2022/03/25 06:17:23;;;;;;;12.32;6.07;;;;;;;18.77;39.20;97832.16;10564964;28;20089;-59
2022/03/25 06:22:42;;;;;;;17.73;7.18;;;;;;;18.83;39.37;97835.63;10534521;28;20052;-59
2022/03/25 06:28:04;;;;;;;15.88;7.35;;;;;;;18.89;39.39;97839.06;10563642;28;20059;-59
2022/03/25 06:33:23;;;;;;;13.75;6.75;;;;;;;18.95;39.53;97840.56;10536097;28;20056;-59
2022/03/25 06:38:43;;;;;;;14.27;6.57;;;;;;;19.00;39.39;97845.91;10556414;28;20055;-59
2022/03/25 06:44:03;;;;;;;13.90;7.30;;;;;;;19.06;39.21;97843.91;10542727;28;20513;-59
2022/03/25 06:49:23;;;;;;;12.10;6.50;;;;;;;19.11;39.36;97846.53;10556740;28;20041;-59
2022/03/25 06:54:43;;;;;;;11.98;6.60;;;;;;;19.15;39.20;97859.16;10574967;28;20048;-59
2022/03/25 07:00:03;;;;;;;13.50;6.60;;;;;;;19.19;39.33;97858.56;10578662;28;20387;-58
2022/03/25 07:05:24;;;;;;;17.58;6.88;;;;;;;19.22;39.11;97868.78;10598571;28;20476;-59
2022/03/25 07:10:44;;;;;;;9.50;5.90;;;;;;;19.25;39.21;97874.41;10573288;28;20048;-59
2022/03/25 07:16:05;;;;;;;11.77;6.57;;;;;;;19.27;39.25;97866.78;10583694;28;20130;-59
2022/03/25 07:21:25;;;;;;;10.75;6.40;;;;;;;19.28;39.08;97868.38;10578491;28;20059;-59
2022/03/25 07:26:45;;;;;;;16.15;6.70;;;;;;;19.32;39.11;97871.31;10552516;28;20040;-60
2022/03/25 07:32:04;;;;;;;10.25;6.22;;;;;;;19.33;39.26;97876.41;10539063;28;20055;-59
2022/03/25 07:37:24;;;;;;;12.55;6.75;;;;;;;19.36;39.24;97880.41;10539141;28;20461;-59
2022/03/25 07:42:45;;;;;;;11.02;6.13;;;;;;;19.37;39.05;97879.34;10540709;28;20052;-59
2022/03/25 07:48:05;;;;;;;8.48;5.82;;;;;;;19.39;39.21;97884.44;10533089;28;20048;-59
2022/03/25 07:53:24;;;;;;;12.63;6.38;;;;;;;19.42;39.26;97889.25;10524981;28;20117;-59
2022/03/25 07:58:44;;;;;;;11.40;5.88;;;;;;;19.43;39.17;97888.16;10538617;28;20051;-59
2022/03/25 08:04:04;;;;;;;9.52;5.63;;;;;;;19.44;39.32;97887.84;10540851;28;20487;-59
2022/03/25 08:09:24;;;;;;;10.10;5.78;;;;;;;19.45;39.44;97889.47;10537399;28;20498;-59
2022/03/25 08:14:44;;;;;;;9.30;5.85;;;;;;;19.46;39.26;97898.34;10530541;28;20056;-59
2022/03/25 08:20:04;;;;;;;8.57;5.90;;;;;;;19.47;39.36;97897.28;10556443;28;20055;-59
2022/03/25 08:31:03;;;;;;;7.57;4.97;;;;;;;19.50;39.25;97911.00;10555202;28;20140;-59
2022/03/25 08:36:23;;;;;;;8.85;5.28;;;;;;;19.51;39.38;97909.88;10542046;28;20047;-59
2022/03/25 08:41:43;;;;;;;6.75;5.30;;;;;;;19.51;39.39;97912.59;10553322;28;20467;-60
2022/03/25 08:47:03;;;;;;;8.05;5.20;;;;;;;19.52;39.40;97910.69;10504134;28;20056;-58
2022/03/25 08:52:22;;;;;;;7.78;5.43;;;;;;;19.54;39.29;97913.88;10532026;28;20479;-59
2022/03/25 08:57:42;;;;;;;9.15;5.63;;;;;;;19.54;39.32;97908.47;10537749;28;20051;-58
2022/03/25 09:03:03;;;;;;;9.40;5.35;;;;;;;19.55;39.49;97910.09;10538341;28;20071;-59
2022/03/25 09:08:22;;;;;;;6.35;4.88;;;;;;;19.55;39.45;97905.47;10538137;28;20052;-59
2022/03/25 09:13:41;;;;;;;9.73;5.10;;;;;;;19.55;39.34;97910.09;10537546;28;20052;-59
2022/03/25 09:19:00;;;;;;;7.93;4.93;;;;;;;19.56;39.45;97911.69;10512492;28;20037;-59
2022/03/25 09:24:20;;;;;;;6.93;4.88;;;;;;;19.55;39.47;97910.09;10562758;28;20051;-59
2022/03/25 09:29:39;;;;;;;6.30;4.60;;;;;;;19.57;39.40;97907.91;10531861;28;20432;-60
2022/03/25 09:35:13;;;;;;;16.58;10.95;;;;;;;19.54;35.70;97914.72;10520342;28;20075;-59
2022/03/25 09:40:32;;;;;;;10.48;7.50;;;;;;;19.53;38.13;97915.78;10532679;28;20442;-61
2022/03/25 09:45:52;;;;;;;22.05;17.38;;;;;;;19.40;30.14;97916.56;10513850;28;20044;-60
2022/03/25 09:51:12;;;;;;;28.13;19.17;;;;;;;19.25;28.99;97912.22;10518569;28;20044;-60
2022/03/25 09:56:34;;;;;;;26.63;18.85;;;;;;;19.16;28.44;97913.97;10534154;28;20433;-58
2022/03/25 10:01:53;;;;;;;24.15;18.48;;;;;;;19.15;29.84;97917.75;10547832;28;20511;-59
2022/03/25 10:07:27;;;;;;;19.92;16.48;;;;;;;19.20;30.52;97914.19;10533238;28;20039;-58
2022/03/25 10:12:48;;;;;;;20.30;15.63;;;;;;;19.23;31.63;97913.59;10541889;28;20422;-58
2022/03/25 10:18:08;;;;;;;19.60;15.50;;;;;;;19.25;31.78;97904.13;10530848;28;20052;-58
2022/03/25 10:23:27;;;;;;;19.15;14.27;;;;;;;19.27;31.75;97910.03;10549265;28;20137;-59
2022/03/25 10:28:47;;;;;;;18.70;14.35;;;;;;;19.29;31.78;97907.03;10535623;28;20135;-58
2022/03/25 10:34:18;;;;;;;16.50;13.50;;;;;;;19.28;31.84;97911.63;10534785;28;20098;-58
2022/03/25 10:39:38;;;;;;;18.35;13.73;;;;;;;19.29;31.97;97917.84;10532839;28;20040;-58
2022/03/25 10:44:58;;;;;;;16.50;12.43;;;;;;;19.29;31.84;97912.44;10564334;28;20055;-58
2022/03/25 10:50:19;;;;;;;17.65;13.57;;;;;;;19.30;31.77;97916.72;10551573;28;20047;-58
2022/03/25 10:55:40;;;;;;;18.90;12.73;;;;;;;19.28;31.69;97913.53;10541996;28;20052;-58
2022/03/25 11:01:00;;;;;;;15.35;12.18;;;;;;;19.29;31.75;97909.72;10515361;28;20048;-58
2022/03/25 11:06:20;;;;;;;16.55;11.90;;;;;;;19.28;31.81;97902.72;10533790;28;20507;-58
2022/03/25 11:11:42;;;;;;;15.88;11.40;;;;;;;19.28;31.74;97900.00;10543794;28;20070;-59
2022/03/25 11:17:02;;;;;;;14.40;11.27;;;;;;;19.27;31.51;97906.53;10546224;28;20395;-59
2022/03/25 11:22:23;;;;;;;15.93;11.35;;;;;;;19.27;31.64;97904.63;10557646;28;20506;-58
2022/03/25 11:27:46;;;;;;;17.33;11.88;;;;;;;19.27;31.39;97898.41;10540468;28;20052;-58
2022/03/25 11:33:07;;;;;;;14.93;11.90;;;;;;;19.26;31.33;97896.81;10548365;28;20036;-58
2022/03/25 11:38:26;;;;;;;13.32;11.10;;;;;;;19.26;31.26;97899.50;10558588;28;20517;-58
2022/03/25 11:44:14;;;;;;;15.15;11.45;;;;;;;19.25;31.16;97889.78;10581250;28;20120;-58
2022/03/25 11:49:38;;;;;;;16.15;11.75;;;;;;;19.25;31.44;97887.09;10560955;28;20098;-58
2022/03/25 11:54:59;;;;;;;12.65;11.13;;;;;;;19.24;31.27;97882.78;10541166;28;20430;-58
2022/03/25 12:00:27;;;;;;;14.15;11.35;;;;;;;19.24;31.07;97880.09;10541066;28;20104;-58
2022/03/25 12:06:03;;;;;;;12.57;10.73;;;;;;;19.23;30.99;97873.91;10540773;28;20181;-58
2022/03/25 12:11:51;;;;;;;14.25;11.48;;;;;;;19.23;31.04;97873.06;10556680;28;20052;-59
2022/03/25 12:17:22;;;;;;;15.57;11.18;;;;;;;19.21;31.25;97867.97;10546429;28;20483;-58
2022/03/25 12:22:42;;;;;;;16.60;11.88;;;;;;;19.21;31.22;97865.28;10539087;28;20055;-58
2022/03/25 12:28:01;;;;;;;18.00;11.82;;;;;;;19.21;31.10;97869.88;10537075;28;20063;-58
2022/03/25 12:33:21;;;;;;;16.15;11.68;;;;;;;19.20;30.92;97860.16;10557282;28;20058;-58
2022/03/25 12:38:41;;;;;;;16.40;11.93;;;;;;;19.19;30.89;97855.84;10562709;28;20058;-58
2022/03/25 12:44:02;;;;;;;13.13;11.35;;;;;;;19.19;30.74;97859.38;10566153;28;20064;-58
2022/03/25 12:49:22;;;;;;;13.85;11.10;;;;;;;19.18;30.43;97849.66;10539704;28;20479;-59
2022/03/25 12:54:42;;;;;;;15.10;11.82;;;;;;;19.17;30.62;97838.06;10557079;28;20106;-58
2022/03/25 13:00:03;;;;;;;17.00;12.05;;;;;;;19.17;30.29;97846.16;10552128;28;20052;-58
2022/03/25 13:05:25;;;;;;;14.48;11.43;;;;;;;19.17;30.34;97838.06;10523247;28;20048;-58
2022/03/25 13:10:45;;;;;;;15.63;11.82;;;;;;;19.17;30.08;97837.25;10557553;28;20487;-59
2022/03/25 13:16:06;;;;;;;15.02;11.65;;;;;;;19.17;30.03;97832.66;10543982;28;20460;-58
2022/03/25 13:21:26;;;;;;;16.90;11.60;;;;;;;19.16;30.01;97820.22;10532193;28;20049;-58
2022/03/25 13:26:45;;;;;;;15.57;11.82;;;;;;;19.18;29.91;97828.03;10534089;28;20028;-58
2022/03/25 13:32:06;;;;;;;14.63;11.80;;;;;;;19.18;29.75;97822.63;10549858;28;20040;-58
2022/03/25 13:37:25;;;;;;;13.18;10.70;;;;;;;19.16;29.78;97812.13;10537506;28;20064;-58
2022/03/25 13:42:53;;;;;;;15.13;11.07;;;;;;;19.17;29.55;97816.44;10548949;28;20533;-58
2022/03/25 13:48:14;;;;;;;13.38;10.45;;;;;;;19.19;29.71;97804.53;10569045;28;20051;-58
2022/03/25 13:53:38;;;;;;;12.75;10.43;;;;;;;19.17;29.49;97802.94;10564619;28;20048;-59
2022/03/25 13:58:58;;;;;;;14.63;10.52;;;;;;;19.18;29.53;97803.72;10536337;28;20060;-59
2022/03/25 14:04:24;;;;;;;15.32;10.88;;;;;;;19.19;29.50;97799.13;10540623;28;20596;-58
2022/03/25 14:09:51;;;;;;;13.18;10.38;;;;;;;19.17;29.49;97794.03;10536735;28;20047;-58
2022/03/25 14:15:16;;;;;;;13.77;10.88;;;;;;;19.18;29.73;97798.31;10538646;28;20066;-59
2022/03/25 14:20:35;;;;;;;13.27;10.18;;;;;;;19.17;29.33;97797.53;10536017;28;20055;-59
2022/03/25 14:25:55;;;;;;;14.95;10.40;;;;;;;19.18;29.29;97790.22;10513254;28;20040;-58
2022/03/25 14:31:14;;;;;;;12.23;10.75;;;;;;;19.18;29.38;97790.22;10564773;28;20051;-59
2022/03/25 14:36:35;;;;;;;14.98;10.98;;;;;;;19.18;29.18;97782.13;10541669;28;20048;-58
2022/03/25 14:41:54;;;;;;;13.25;10.52;;;;;;;19.20;29.24;97787.22;10538049;28;20052;-59
2022/03/25 14:47:13;;;;;;;12.95;9.95;;;;;;;19.20;29.73;97779.94;10543851;28;20052;-57
2022/03/25 14:52:34;;;;;;;12.95;9.52;;;;;;;19.20;29.78;97774.53;10541836;28;20423;-59
2022/03/25 14:57:54;;;;;;;14.20;10.75;;;;;;;19.20;29.82;97773.72;10539683;28;20056;-57
2022/03/25 15:03:13;;;;;;;14.57;11.00;;;;;;;19.19;30.34;97764.84;10560932;28;20055;-60
2022/03/25 15:08:33;;;;;;;16.65;11.52;;;;;;;19.18;30.25;97776.72;10548897;28;20482;-59
2022/03/25 15:13:53;;;;;;;20.38;15.40;;;;;;;19.17;30.07;97773.22;10564747;28;20047;-61
2022/03/25 15:19:12;;;;;;;30.23;18.48;;;;;;;19.05;27.42;97767.50;10552808;28;20048;-60
2022/03/25 15:24:32;;;;;;;26.75;18.40;;;;;;;18.93;26.99;97767.97;10546477;28;20056;-62
2022/03/25 15:35:29;;;;;;;26.10;18.93;;;;;;;18.74;26.46;97762.59;10540317;28;20036;-62
2022/03/25 15:40:49;;;;;;;26.55;19.52;;;;;;;18.74;26.46;97762.59;10541411;28;20392;-61
2022/03/25 15:46:12;;;;;;;26.42;19.40;;;;;;;18.74;26.46;97762.59;10576636;28;20044;-60
2022/03/25 15:51:32;;;;;;;23.55;16.05;;;;;;;18.74;26.46;97762.59;10549408;28;20578;-59
2022/03/25 15:56:51;;;;;;;22.00;15.57;;;;;;;18.68;29.06;97763.78;10525939;28;20072;-58
2022/03/25 16:02:12;;;;;;;25.98;15.02;;;;;;;18.74;29.87;97759.88;10555302;28;20043;-60
2022/03/25 16:07:31;;;;;;;25.52;17.35;;;;;;;18.75;28.19;97753.38;10561967;28;20050;-59
2022/03/25 16:12:51;;;;;;;25.35;16.58;;;;;;;18.73;26.39;97765.56;10567057;28;20096;-61
2022/03/25 16:18:11;;;;;;;24.52;16.10;;;;;;;18.63;23.65;97766.53;10567189;28;20040;-59
2022/03/25 16:23:34;;;;;;;27.60;16.17;;;;;;;18.56;25.97;97772.31;10543597;28;20426;-61
2022/03/25 16:28:53;;;;;;;21.27;14.23;;;;;;;18.62;27.43;97770.34;10552468;28;20055;-60
2022/03/25 16:34:14;;;;;;;18.38;13.82;;;;;;;18.68;28.31;97774.56;10537601;28;20052;-60
2022/03/25 16:39:33;;;;;;;19.23;12.77;;;;;;;18.73;28.61;97777.16;10541427;28;20085;-60
2022/03/25 16:44:53;;;;;;;19.65;11.15;;;;;;;18.80;29.61;97776.00;10500689;28;20045;-60
2022/03/25 16:50:14;;;;;;;13.02;9.82;;;;;;;18.85;30.24;97774.03;10479941;28;20372;-60
2022/03/25 16:55:34;;;;;;;12.82;9.77;;;;;;;18.90;30.78;97778.56;10521073;28;20059;-60
2022/03/25 17:00:53;;;;;;;12.60;8.90;;;;;;;18.93;31.01;97775.25;10493891;28;20044;-61
2022/03/25 17:06:22;;;;;;;11.18;8.60;;;;;;;18.96;31.33;97782.78;10485000;28;20589;-61
2022/03/25 17:11:42;;;;;;;;;;;;;;;19.01;32.24;97781.88;10505764;28;20090;-60
2022/03/25 17:17:01;;;;;;;9.05;7.00;;;;;;;19.04;32.28;97786.72;10491666;28;20505;-60
2022/03/25 17:22:21;;;;;;;9.88;7.20;;;;;;;19.07;32.57;97796.91;10493996;28;20040;-60
2022/03/25 17:27:41;;;;;;;10.10;7.18;;;;;;;19.10;33.05;97805.22;10500586;28;20063;-60
2022/03/25 17:33:05;;;;;;;10.68;6.95;;;;;;;19.13;33.40;97807.34;10495624;28;20419;-60
2022/03/25 17:38:25;;;;;;;12.18;7.10;;;;;;;19.17;33.75;97813.75;10495065;28;20059;-60
2022/03/25 17:43:45;;;;;;;12.18;7.00;;;;;;;19.20;33.91;97809.63;10502120;28;20083;-60
2022/03/25 17:49:05;;;;;;;14.38;7.07;;;;;;;19.24;34.35;97813.34;10566391;28;20129;-60
2022/03/25 17:54:24;;;;;;;10.55;7.38;;;;;;;19.29;34.65;97821.38;10532859;28;20432;-60
2022/03/25 17:59:44;;;;;;;10.80;6.45;;;;;;;19.32;34.85;97811.84;10532245;28;20062;-60
2022/03/25 18:05:04;;;;;;;11.15;7.45;;;;;;;19.35;35.25;97830.19;10542813;28;20048;-60
2022/03/25 18:10:23;;;;;;;13.70;7.78;;;;;;;19.38;35.44;97829.56;10533157;28;20059;-60
2022/03/25 18:15:44;;;;;;;12.32;7.28;;;;;;;19.42;35.75;97836.00;10522674;28;20609;-60
2022/03/25 18:21:04;;;;;;;15.85;8.00;;;;;;;19.45;35.69;97843.50;10520995;28;20056;-60
2022/03/25 18:26:24;;;;;;;12.40;7.15;;;;;;;19.48;35.78;97842.94;10549341;28;20037;-60
2022/03/25 18:31:44;;;;;;;9.68;6.32;;;;;;;19.53;35.86;97847.44;10541791;28;20623;-61
2022/03/25 18:37:04;;;;;;;10.50;6.72;;;;;;;19.56;36.15;97849.53;10523722;28;20048;-60
2022/03/25 18:42:23;;;;;;;12.95;6.65;;;;;;;19.58;36.20;97850.03;10541377;28;20106;-60
2022/03/25 18:47:43;;;;;;;10.38;6.57;;;;;;;19.60;36.61;97853.25;10547629;28;20060;-60
2022/03/25 18:53:02;;;;;;;12.55;6.88;;;;;;;19.63;36.99;97857.25;10575721;28;20047;-60
2022/03/25 18:58:22;;;;;;;13.30;7.03;;;;;;;19.64;37.34;97862.38;10543849;28;20387;-60
2022/03/25 19:03:42;;;;;;;9.80;7.00;;;;;;;19.67;37.66;97863.66;10551755;28;20039;-60
2022/03/25 19:09:02;;;;;;;9.60;6.47;;;;;;;19.68;37.86;97866.06;10548844;28;20047;-60
2022/03/25 19:14:23;;;;;;;9.82;6.32;;;;;;;19.69;38.00;97880.38;10560403;28;20055;-60
2022/03/25 19:19:46;;;;;;;8.75;5.97;;;;;;;19.71;38.24;97875.47;10541229;28;20056;-60
2022/03/25 19:25:06;;;;;;;7.95;5.68;;;;;;;19.73;38.36;97870.59;10536354;28;20051;-60
2022/03/25 19:30:26;;;;;;;10.10;5.93;;;;;;;19.72;38.30;97867.09;10545966;28;20506;-60
2022/03/25 19:35:46;;;;;;;10.73;5.63;;;;;;;19.74;38.46;97869.53;10583171;28;20040;-60
2022/03/25 19:41:05;;;;;;;9.90;5.88;;;;;;;19.75;39.25;97879.22;10566370;28;20097;-60
2022/03/25 19:46:30;;;;;;;7.22;5.30;;;;;;;19.75;39.62;97880.00;10554768;28;20047;-60
2022/03/25 19:51:51;;;;;;;8.35;5.28;;;;;;;19.77;39.70;97889.75;10538976;28;20040;-60
2022/03/25 19:57:10;;;;;;;7.97;5.38;;;;;;;19.78;39.60;97891.31;10531455;28;20053;-60
2022/03/25 20:02:31;;;;;;;8.43;5.20;;;;;;;19.79;39.54;97898.34;10540646;28;20396;-60
2022/03/25 20:07:50;;;;;;;9.45;5.65;;;;;;;19.78;39.61;97894.84;10565075;28;20287;-60
2022/03/25 20:13:11;;;;;;;9.85;5.57;;;;;;;19.78;39.52;97897.56;10547253;28;20043;-60
2022/03/25 20:18:31;;;;;;;10.70;5.72;;;;;;;19.79;39.58;97909.16;10521001;28;20111;-60
2022/03/25 20:23:51;;;;;;;9.63;5.63;;;;;;;19.79;39.54;97909.97;10569869;28;20097;-60
2022/03/25 20:29:11;;;;;;;8.32;5.35;;;;;;;19.79;39.49;97904.56;10544189;28;20047;-60
2022/03/25 20:34:31;;;;;;;10.60;5.80;;;;;;;19.79;39.61;97918.06;10581437;28;20059;-60
2022/03/25 20:39:50;;;;;;;8.85;5.43;;;;;;;19.79;39.58;97926.19;10557939;28;20051;-60
2022/03/25 20:45:10;;;;;;;7.75;5.10;;;;;;;19.79;39.54;97925.41;10550178;28;20052;-60
2022/03/25 20:50:32;;;;;;;10.00;6.15;;;;;;;19.79;39.64;97930.81;10557615;28;20423;-60
2022/03/25 20:55:51;;;;;;;7.88;5.30;;;;;;;19.79;39.87;97925.41;10555677;28;20051;-60
2022/03/25 21:01:10;;;;;;;8.50;5.38;;;;;;;19.79;39.81;97937.00;10531490;28;20049;-60
2022/03/25 21:06:30;;;;;;;7.97;5.35;;;;;;;19.78;40.01;97935.41;10576367;28;20043;-60
2022/03/25 21:11:50;;;;;;;7.57;5.38;;;;;;;19.78;39.97;97932.72;10559553;28;20093;-60
2022/03/25 21:17:10;;;;;;;7.85;4.93;;;;;;;19.77;40.07;97938.41;10525273;28;20055;-60
2022/03/25 21:22:29;;;;;;;9.02;5.20;;;;;;;19.78;40.12;97940.00;10548395;28;20044;-60
2022/03/25 21:27:49;;;;;;;6.75;4.90;;;;;;;19.77;40.04;97947.31;10573858;28;20049;-60
2022/03/25 21:33:08;;;;;;;6.40;4.75;;;;;;;19.77;39.97;97951.94;10579133;28;20040;-60
2022/03/25 21:38:28;;;;;;;7.13;4.78;;;;;;;19.75;39.86;97944.09;10559869;28;20067;-60
2022/03/25 21:43:48;;;;;;;7.80;5.05;;;;;;;19.76;39.78;97951.13;10535558;28;20066;-60
2022/03/25 21:49:07;;;;;;;12.30;8.75;;;;;;;19.75;38.77;97952.22;10550393;28;20051;-60
2022/03/25 21:54:26;;;;;;;7.93;4.95;;;;;;;19.73;39.38;97951.72;10551564;28;20059;-60
2022/03/25 21:59:46;;;;;;;8.45;5.45;;;;;;;19.72;39.40;97955.53;10518672;28;20059;-60
2022/03/25 22:05:06;;;;;;;8.07;5.00;;;;;;;19.71;39.33;97956.59;10519428;28;20040;-60
2022/03/25 22:10:26;;;;;;;6.70;4.80;;;;;;;19.71;39.21;97953.88;10524129;28;20184;-60
2022/03/25 22:15:46;;;;;;;6.57;5.20;;;;;;;19.70;39.21;97955.78;10527813;28;20054;-60
2022/03/25 22:21:06;;;;;;;7.07;5.20;;;;;;;19.69;39.31;97953.38;10567546;28;20051;-60
2022/03/25 22:26:25;;;;;;;5.40;4.55;;;;;;;19.69;39.11;97965.00;10533991;28;20526;-60
2022/03/25 22:31:44;;;;;;;5.88;4.70;;;;;;;19.68;39.15;97962.56;10535842;28;20052;-60
2022/03/25 22:37:05;;;;;;;5.63;4.35;;;;;;;19.69;39.13;97964.19;10531492;28;20541;-60
2022/03/25 22:42:24;;;;;;;6.00;4.57;;;;;;;19.67;39.06;97961.78;10529280;28;20761;-60
2022/03/25 22:47:43;;;;;;;7.47;4.35;;;;;;;19.65;39.18;97963.19;10523736;28;20487;-60
2022/03/25 22:53:03;;;;;;;6.05;4.55;;;;;;;19.65;39.21;97960.47;10531723;28;20426;-60
2022/03/25 22:58:22;;;;;;;5.32;4.03;;;;;;;19.65;38.99;97974.00;10544127;28;20039;-60
2022/03/25 23:03:42;;;;;;;5.50;4.32;;;;;;;19.64;38.95;97959.69;10560852;28;20052;-60
2022/03/25 23:09:03;;;;;;;4.57;3.70;;;;;;;19.63;39.01;97965.38;10531522;28;20040;-60
2022/03/25 23:14:23;;;;;;;5.88;4.38;;;;;;;19.63;38.96;97970.78;10518694;28;20593;-60
2022/03/25 23:19:42;;;;;;;7.20;4.20;;;;;;;19.62;38.93;97969.16;10544785;28;20047;-60
2022/03/25 23:25:02;;;;;;;5.20;4.20;;;;;;;19.61;39.04;97973.00;10534258;28;20054;-60
2022/03/25 23:30:22;;;;;;;5.22;3.85;;;;;;;19.60;38.95;97972.19;10546555;28;20048;-60
2022/03/25 23:35:41;;;;;;;5.47;4.18;;;;;;;19.60;38.95;97971.38;10536935;28;20048;-60
2022/03/25 23:41:02;;;;;;;4.93;3.88;;;;;;;19.59;39.00;97969.78;10534798;28;20528;-60
2022/03/25 23:46:21;;;;;;;5.00;4.05;;;;;;;19.56;38.92;97969.28;10538873;28;20402;-60
2022/03/25 23:51:40;;;;;;;5.22;3.85;;;;;;;19.57;38.89;97972.78;10539581;28;20071;-60
2022/03/25 23:57:00;;;;;;;5.35;3.70;;;;;;;19.55;38.86;97973.06;10549349;28;20032;-60
